Time;durP1;ratioP1;P1;durP2;ratioP2;P2;SDS_P1;SDS_P2;PMS_P1;PMS_P2;Temp;Humidity;BMP_temperature;BMP_pressure;BME280_temperature;BME280_humidity;BME280_pressure;Samples;Min_cycle;Max_cycle;Signal;HPM_P1;HPM_P2
2023/03/17 00:01:04;;;;;;;11.02;4.40;;;;;;;;;;4990295;28;20106;-64
2023/03/17 00:03:34;;;;;;;9.32;4.43;;;;;;;;;;4987700;28;20116;-65
2023/03/17 00:09:34;;;;;;;10.23;4.95;;;;;;;;;;4997971;28;20601;-64
2023/03/17 00:11:59;;;;;;;8.98;4.22;;;;;;;;;;4973690;28;20073;-64
2023/03/17 00:14:27;;;;;;;12.80;4.60;;;;;;;;;;4973149;28;20034;-64
2023/03/17 00:16:52;;;;;;;10.77;4.38;;;;;;;;;;4974164;28;20400;-64
2023/03/17 00:19:31;;;;;;;12.23;4.60;;;;;;;;;;4974566;28;20026;-64
2023/03/17 00:22:00;;;;;;;11.77;4.57;;;;;;;;;;4975408;28;20125;-65
2023/03/17 00:24:27;;;;;;;11.60;4.97;;;;;;;;;;4975093;28;20615;-65
2023/03/17 00:26:53;;;;;;;12.45;5.32;;;;;;;;;;4978877;28;20667;-64
2023/03/17 00:29:18;;;;;;;13.07;5.68;;;;;;;;;;4974237;28;20037;-65
2023/03/17 00:35:32;;;;;;;9.45;4.70;;;;;;;;;;5006405;23;20061;-64
2023/03/17 00:37:58;;;;;;;11.13;4.68;;;;;;;;;;4947045;28;20144;-65
2023/03/17 00:40:23;;;;;;;9.82;5.47;;;;;;;;;;4954041;28;20045;-64
2023/03/17 00:42:54;;;;;;;15.52;5.30;;;;;;;;;;4954443;28;20499;-64
2023/03/17 00:45:20;;;;;;;10.02;4.85;;;;;;;;;;4954159;28;20297;-65
2023/03/17 00:47:50;;;;;;;11.90;5.07;;;;;;;;;;4932543;28;20581;-64
2023/03/17 00:50:16;;;;;;;12.10;4.60;;;;;;;;;;4954499;28;20045;-65
2023/03/17 00:52:43;;;;;;;9.90;4.55;;;;;;;;;;4955381;28;20050;-65
2023/03/17 00:55:08;;;;;;;9.90;5.00;;;;;;;;;;4931159;28;20038;-66
2023/03/17 00:57:38;;;;;;;12.00;5.00;;;;;;;;;;4955328;28;20077;-66
2023/03/17 01:00:03;;;;;;;9.63;4.53;;;;;;;;;;4954667;28;20100;-64
2023/03/17 01:02:29;;;;;;;8.43;4.50;;;;;;;;;;4938369;28;22412;-65
2023/03/17 01:04:55;;;;;;;11.43;4.82;;;;;;;;;;4956263;28;20034;-64
2023/03/17 01:07:23;;;;;;;12.15;5.10;;;;;;;;;;4947854;28;20041;-65
2023/03/17 01:09:49;;;;;;;12.57;5.03;;;;;;;;;;4953382;28;21132;-65
2023/03/17 01:12:15;;;;;;;15.60;5.13;;;;;;;;;;4957390;28;20626;-64
2023/03/17 01:14:40;;;;;;;11.43;5.25;;;;;;;;;;4932028;28;20752;-64
2023/03/17 01:17:12;;;;;;;13.77;4.60;;;;;;;;;;4951633;28;20555;-64
2023/03/17 01:19:37;;;;;;;;;;;;;;;;;;4955078;28;20072;-65
2023/03/17 01:22:03;;;;;;;12.30;4.15;;;;;;;;;;4968839;28;19917;-64
2023/03/17 01:24:28;;;;;;;8.75;3.50;;;;;;;;;;4955799;28;20167;-63
2023/03/17 01:26:53;;;;;;;10.00;4.15;;;;;;;;;;4954527;28;20553;-65
2023/03/17 01:29:19;;;;;;;11.25;3.90;;;;;;;;;;4954129;28;20034;-64
2023/03/17 01:31:45;;;;;;;8.50;3.78;;;;;;;;;;4968640;28;20046;-63
2023/03/17 01:34:10;;;;;;;8.07;4.03;;;;;;;;;;4955328;28;21783;-65
2023/03/17 01:36:36;;;;;;;8.75;3.75;;;;;;;;;;4961823;28;20103;-64
2023/03/17 01:39:04;;;;;;;8.90;4.00;;;;;;;;;;4974171;28;20690;-64
2023/03/17 01:41:31;;;;;;;6.55;3.60;;;;;;;;;;4974631;28;20494;-65
2023/03/17 01:44:00;;;;;;;9.20;4.20;;;;;;;;;;4950768;28;20239;-64
2023/03/17 01:46:32;;;;;;;7.47;3.70;;;;;;;;;;4963848;28;20033;-64
2023/03/17 01:48:58;;;;;;;9.20;4.50;;;;;;;;;;4974241;28;20616;-64
2023/03/17 01:51:26;;;;;;;7.97;3.80;;;;;;;;;;4972398;28;20033;-65
2023/03/17 01:53:52;;;;;;;10.75;4.68;;;;;;;;;;4988884;28;20651;-65
2023/03/17 01:56:18;;;;;;;10.13;4.65;;;;;;;;;;4955657;28;20811;-65
2023/03/17 01:58:45;;;;;;;9.90;3.55;;;;;;;;;;4975316;28;20041;-64
2023/03/17 02:01:13;;;;;;;8.07;3.85;;;;;;;;;;4971935;28;20041;-64
2023/03/17 02:03:39;;;;;;;9.25;4.43;;;;;;;;;;4988658;28;20307;-64
2023/03/17 02:06:06;;;;;;;10.88;4.00;;;;;;;;;;4973646;28;20945;-64
2023/03/17 02:08:31;;;;;;;8.85;4.18;;;;;;;;;;4951211;28;20038;-65
2023/03/17 02:10:57;;;;;;;7.32;3.70;;;;;;;;;;4973482;28;20195;-65
2023/03/17 02:13:23;;;;;;;6.55;3.65;;;;;;;;;;4972475;28;20743;-64
2023/03/17 02:15:53;;;;;;;10.40;4.75;;;;;;;;;;4973117;28;20115;-64
2023/03/17 02:18:20;;;;;;;9.68;4.68;;;;;;;;;;4972972;28;20029;-65
2023/03/17 02:20:45;;;;;;;7.00;3.83;;;;;;;;;;4974223;28;20041;-64
2023/03/17 02:23:15;;;;;;;8.57;4.10;;;;;;;;;;4971602;28;20037;-65
2023/03/17 02:25:43;;;;;;;9.57;4.60;;;;;;;;;;4965944;28;20479;-64
2023/03/17 02:28:13;;;;;;;8.07;3.95;;;;;;;;;;4971484;28;22028;-64
2023/03/17 02:30:39;;;;;;;9.15;4.43;;;;;;;;;;4974239;28;20577;-64
2023/03/17 02:33:04;;;;;;;8.85;4.20;;;;;;;;;;4964729;28;20119;-64
2023/03/17 02:35:32;;;;;;;7.40;3.80;;;;;;;;;;4974340;28;20248;-63
2023/03/17 02:38:00;;;;;;;8.77;4.22;;;;;;;;;;4970598;28;20045;-64
2023/03/17 02:40:27;;;;;;;8.40;4.07;;;;;;;;;;4973185;28;20309;-64
2023/03/17 02:42:53;;;;;;;9.48;4.78;;;;;;;;;;4972990;28;20687;-64
2023/03/17 02:45:18;;;;;;;9.82;3.85;;;;;;;;;;4972791;28;20573;-64
2023/03/17 02:47:46;;;;;;;11.70;4.85;;;;;;;;;;4965973;28;20065;-66
2023/03/17 02:50:20;;;;;;;8.32;3.88;;;;;;;;;;4974983;28;20066;-65
2023/03/17 02:52:47;;;;;;;10.57;4.57;;;;;;;;;;4972016;28;20540;-64
2023/03/17 02:55:13;;;;;;;12.50;5.40;;;;;;;;;;4973991;28;20041;-64
2023/03/17 02:57:39;;;;;;;10.85;4.28;;;;;;;;;;4972310;28;20098;-64
2023/03/17 03:00:04;;;;;;;10.60;5.35;;;;;;;;;;4970645;28;20743;-63
2023/03/17 03:02:32;;;;;;;9.35;4.65;;;;;;;;;;4972468;28;20033;-63
2023/03/17 03:04:57;;;;;;;9.18;4.40;;;;;;;;;;4965526;28;20847;-64
2023/03/17 03:07:25;;;;;;;12.05;5.00;;;;;;;;;;4973485;28;20457;-64
2023/03/17 03:09:50;;;;;;;10.65;4.95;;;;;;;;;;4970692;28;20529;-64
2023/03/17 03:12:15;;;;;;;8.13;3.92;;;;;;;;;;4988187;28;20037;-65
2023/03/17 03:14:41;;;;;;;14.25;5.57;;;;;;;;;;4958403;28;20076;-65
2023/03/17 03:17:07;;;;;;;11.80;5.03;;;;;;;;;;4950874;28;20593;-65
2023/03/17 03:19:33;;;;;;;10.18;4.88;;;;;;;;;;4972769;28;20038;-64
2023/03/17 03:21:58;;;;;;;9.88;4.22;;;;;;;;;;4973642;28;20134;-65
2023/03/17 03:24:23;;;;;;;10.30;5.03;;;;;;;;;;4970436;28;20061;-65
2023/03/17 03:26:49;;;;;;;9.63;4.28;;;;;;;;;;4973255;28;20038;-65
2023/03/17 03:29:14;;;;;;;11.15;4.75;;;;;;;;;;4985465;28;20624;-64
2023/03/17 03:31:44;;;;;;;12.10;5.57;;;;;;;;;;4958120;28;20153;-63
2023/03/17 03:34:09;;;;;;;12.52;5.40;;;;;;;;;;4954516;28;20072;-64
2023/03/17 03:36:35;;;;;;;11.68;5.43;;;;;;;;;;4973455;28;20896;-64
2023/03/17 03:39:01;;;;;;;12.88;4.97;;;;;;;;;;4971023;28;20132;-64
2023/03/17 03:41:26;;;;;;;11.27;6.13;;;;;;;;;;4971681;28;20266;-64
2023/03/17 03:43:51;;;;;;;11.50;5.85;;;;;;;;;;4972251;28;20128;-64
2023/03/17 03:46:16;;;;;;;13.63;5.65;;;;;;;;;;4972156;28;20033;-65
2023/03/17 03:48:42;;;;;;;10.57;5.20;;;;;;;;;;4973202;28;20112;-64
2023/03/17 03:51:09;;;;;;;11.77;5.20;;;;;;;;;;4966529;28;20321;-63
2023/03/17 03:53:35;;;;;;;10.02;4.65;;;;;;;;;;4966116;28;20410;-64
2023/03/17 03:56:00;;;;;;;13.02;5.15;;;;;;;;;;4955016;28;20052;-65
2023/03/17 03:58:29;;;;;;;12.60;4.65;;;;;;;;;;4972783;28;20042;-64
2023/03/17 04:00:54;;;;;;;13.35;5.60;;;;;;;;;;4974532;28;20068;-64
2023/03/17 04:03:19;;;;;;;13.40;5.60;;;;;;;;;;4971946;28;20574;-64
2023/03/17 04:05:45;;;;;;;17.15;5.85;;;;;;;;;;4971932;28;21079;-63
2023/03/17 04:08:10;;;;;;;13.80;5.18;;;;;;;;;;4971714;28;20041;-64
2023/03/17 04:10:35;;;;;;;17.95;7.20;;;;;;;;;;4972059;28;20046;-64
2023/03/17 04:13:01;;;;;;;20.17;6.78;;;;;;;;;;4972109;28;20121;-64
2023/03/17 04:15:26;;;;;;;15.35;6.38;;;;;;;;;;4975911;28;20052;-64
2023/03/17 04:17:53;;;;;;;24.73;8.98;;;;;;;;;;4951061;28;20045;-63
2023/03/17 04:20:19;;;;;;;23.63;8.05;;;;;;;;;;4975435;28;20111;-64
2023/03/17 04:22:47;;;;;;;23.73;7.60;;;;;;;;;;4973994;28;20050;-64
2023/03/17 04:25:15;;;;;;;22.88;8.38;;;;;;;;;;4976665;28;22824;-64
2023/03/17 04:27:41;;;;;;;18.60;7.15;;;;;;;;;;4976189;28;20364;-64
2023/03/17 04:30:15;;;;;;;20.45;7.40;;;;;;;;;;4972987;28;20514;-64
2023/03/17 04:32:42;;;;;;;18.42;6.03;;;;;;;;;;4975561;28;20620;-64
2023/03/17 04:35:10;;;;;;;21.13;6.95;;;;;;;;;;4975532;28;20083;-65
2023/03/17 04:37:35;;;;;;;20.67;6.80;;;;;;;;;;4975456;28;20817;-64
2023/03/17 04:40:01;;;;;;;19.58;6.70;;;;;;;;;;4975919;28;20119;-65
2023/03/17 04:42:26;;;;;;;20.40;7.35;;;;;;;;;;4968495;28;20203;-65
2023/03/17 04:44:53;;;;;;;26.98;8.40;;;;;;;;;;4976205;28;20519;-65
2023/03/17 04:47:21;;;;;;;23.25;8.55;;;;;;;;;;4975425;28;20193;-65
2023/03/17 04:49:48;;;;;;;21.77;8.48;;;;;;;;;;4974078;28;20801;-65
2023/03/17 04:52:13;;;;;;;26.60;8.73;;;;;;;;;;4975989;28;20049;-64
2023/03/17 04:54:39;;;;;;;23.50;7.45;;;;;;;;;;4975304;28;20049;-64
2023/03/17 04:57:04;;;;;;;21.58;7.88;;;;;;;;;;4975086;28;20086;-66
2023/03/17 04:59:30;;;;;;;22.23;7.45;;;;;;;;;;4974933;28;20068;-64
2023/03/17 05:01:57;;;;;;;19.58;6.85;;;;;;;;;;4974612;28;20516;-64
2023/03/17 05:04:23;;;;;;;20.65;7.80;;;;;;;;;;4974814;28;20142;-63
2023/03/17 05:06:48;;;;;;;21.23;8.23;;;;;;;;;;4974498;28;20037;-65
2023/03/17 05:09:13;;;;;;;22.55;7.40;;;;;;;;;;4974496;28;20260;-64
2023/03/17 05:11:40;;;;;;;19.05;6.38;;;;;;;;;;4974338;28;20030;-64
2023/03/17 05:14:05;;;;;;;19.80;8.25;;;;;;;;;;4976218;28;20453;-65
2023/03/17 05:16:31;;;;;;;18.77;7.80;;;;;;;;;;4974169;28;20129;-64
2023/03/17 05:18:58;;;;;;;22.20;8.10;;;;;;;;;;4975570;28;20085;-65
2023/03/17 05:21:23;;;;;;;13.32;5.93;;;;;;;;;;4974625;28;20310;-65
2023/03/17 05:23:49;;;;;;;22.77;6.95;;;;;;;;;;4946394;28;20045;-65
2023/03/17 05:26:14;;;;;;;21.95;7.22;;;;;;;;;;4959393;28;20034;-65
2023/03/17 05:28:40;;;;;;;19.77;7.20;;;;;;;;;;4975061;28;20069;-65
2023/03/17 05:31:05;;;;;;;26.42;9.38;;;;;;;;;;4975291;28;20172;-65
2023/03/17 05:33:30;;;;;;;26.45;8.20;;;;;;;;;;4974906;28;20173;-64
2023/03/17 05:35:56;;;;;;;20.65;7.75;;;;;;;;;;4974932;28;20115;-64
2023/03/17 05:38:21;;;;;;;19.83;7.80;;;;;;;;;;4972712;28;20315;-64
2023/03/17 05:40:48;;;;;;;22.50;8.50;;;;;;;;;;4959984;28;20126;-64
2023/03/17 05:43:13;;;;;;;17.10;6.93;;;;;;;;;;4975020;28;20044;-64
2023/03/17 05:45:39;;;;;;;13.15;5.82;;;;;;;;;;4974705;28;20039;-65
2023/03/17 05:48:06;;;;;;;13.10;6.78;;;;;;;;;;4958513;28;20131;-65
2023/03/17 05:50:31;;;;;;;20.52;8.38;;;;;;;;;;4972402;28;20068;-64
2023/03/17 05:52:56;;;;;;;20.52;8.15;;;;;;;;;;4974186;28;20498;-64
2023/03/17 05:55:22;;;;;;;14.88;5.95;;;;;;;;;;4974375;28;20096;-65
2023/03/17 05:57:47;;;;;;;12.02;5.35;;;;;;;;;;4960597;28;20048;-66
2023/03/17 06:00:14;;;;;;;14.02;6.22;;;;;;;;;;4987891;28;20104;-66
2023/03/17 06:02:40;;;;;;;15.70;5.47;;;;;;;;;;4974141;28;20629;-64
2023/03/17 06:05:08;;;;;;;7.97;4.68;;;;;;;;;;4950378;28;20131;-65
2023/03/17 06:07:33;;;;;;;8.93;4.53;;;;;;;;;;4984949;28;20050;-65
2023/03/17 06:09:59;;;;;;;8.20;4.32;;;;;;;;;;4971641;28;20589;-63
2023/03/17 06:12:25;;;;;;;14.68;5.20;;;;;;;;;;4973434;28;20141;-65
2023/03/17 06:14:50;;;;;;;14.25;6.47;;;;;;;;;;4971157;28;20041;-65
2023/03/17 06:17:15;;;;;;;28.13;8.75;;;;;;;;;;4975023;28;20057;-65
2023/03/17 06:19:41;;;;;;;13.88;5.60;;;;;;;;;;4975261;28;20046;-65
2023/03/17 06:22:06;;;;;;;10.65;4.60;;;;;;;;;;4974281;28;20046;-64
2023/03/17 06:24:32;;;;;;;9.50;4.82;;;;;;;;;;4950082;28;20159;-65
2023/03/17 06:26:57;;;;;;;14.07;5.60;;;;;;;;;;4974052;28;20519;-65
2023/03/17 06:29:23;;;;;;;9.32;4.38;;;;;;;;;;4955612;28;20044;-65
2023/03/17 06:31:50;;;;;;;11.88;5.40;;;;;;;;;;4939868;28;20052;-65
2023/03/17 06:34:19;;;;;;;10.02;5.07;;;;;;;;;;4942681;28;20071;-65
2023/03/17 06:36:45;;;;;;;10.13;5.10;;;;;;;;;;4955767;28;20581;-66
2023/03/17 06:39:10;;;;;;;9.20;4.30;;;;;;;;;;4975324;28;20044;-64
2023/03/17 06:41:36;;;;;;;8.00;4.38;;;;;;;;;;4975724;28;22688;-66
2023/03/17 06:44:01;;;;;;;7.10;4.18;;;;;;;;;;4973961;28;20043;-65
2023/03/17 06:46:27;;;;;;;8.23;3.72;;;;;;;;;;4967772;28;20491;-64
2023/03/17 06:48:52;;;;;;;8.38;3.80;;;;;;;;;;4972303;28;20062;-65
2023/03/17 06:51:18;;;;;;;9.18;4.60;;;;;;;;;;4958717;28;20108;-66
2023/03/17 06:53:43;;;;;;;13.30;5.03;;;;;;;;;;4956516;28;20541;-66
2023/03/17 06:56:08;;;;;;;10.57;4.93;;;;;;;;;;4974871;28;20042;-69
2023/03/17 06:58:33;;;;;;;7.25;4.40;;;;;;;;;;4974201;28;20054;-64
2023/03/17 07:00:59;;;;;;;8.65;4.55;;;;;;;;;;4966417;28;20144;-65
2023/03/17 07:03:27;;;;;;;11.20;4.90;;;;;;;;;;4973642;28;20049;-64
2023/03/17 07:05:54;;;;;;;16.70;6.20;;;;;;;;;;4971986;28;20045;-64
2023/03/17 07:08:20;;;;;;;22.48;8.07;;;;;;;;;;4974659;28;20317;-65
2023/03/17 07:10:46;;;;;;;24.48;8.05;;;;;;;;;;4965414;28;20044;-65
2023/03/17 07:13:11;;;;;;;22.10;7.95;;;;;;;;;;4973057;28;20698;-64
2023/03/17 07:15:41;;;;;;;25.50;9.13;;;;;;;;;;4950256;28;20123;-64
2023/03/17 07:18:09;;;;;;;18.58;7.57;;;;;;;;;;4959665;28;20068;-65
2023/03/17 07:20:35;;;;;;;12.90;5.65;;;;;;;;;;4972929;28;20521;-65
2023/03/17 07:23:01;;;;;;;17.88;6.30;;;;;;;;;;4972321;28;20052;-66
2023/03/17 07:25:26;;;;;;;12.82;5.18;;;;;;;;;;4965004;28;20073;-65
2023/03/17 07:27:51;;;;;;;20.60;7.40;;;;;;;;;;4987669;28;20045;-65
2023/03/17 07:30:19;;;;;;;20.63;7.10;;;;;;;;;;4988562;28;20145;-65
2023/03/17 07:32:45;;;;;;;14.57;5.07;;;;;;;;;;4970840;28;20485;-64
2023/03/17 07:35:10;;;;;;;12.77;5.10;;;;;;;;;;4985849;28;20488;-65
2023/03/17 07:37:36;;;;;;;12.02;5.47;;;;;;;;;;4974736;28;20063;-66
2023/03/17 07:40:02;;;;;;;10.00;5.43;;;;;;;;;;4975183;28;20091;-63
2023/03/17 07:42:27;;;;;;;8.52;4.18;;;;;;;;;;4974616;28;20602;-66
2023/03/17 07:44:55;;;;;;;10.48;4.28;;;;;;;;;;4959058;28;20033;-65
2023/03/17 07:47:20;;;;;;;9.93;5.22;;;;;;;;;;4989476;28;20892;-65
2023/03/17 07:49:46;;;;;;;13.55;5.55;;;;;;;;;;4991523;28;20042;-66
2023/03/17 07:52:11;;;;;;;7.47;4.63;;;;;;;;;;4964858;28;20913;-63
2023/03/17 07:54:38;;;;;;;7.47;4.05;;;;;;;;;;4956706;28;20137;-65
2023/03/17 07:57:04;;;;;;;22.98;8.60;;;;;;;;;;4971076;28;20418;-65
2023/03/17 07:59:30;;;;;;;24.42;9.60;;;;;;;;;;4962359;28;20033;-66
2023/03/17 08:01:56;;;;;;;32.10;9.35;;;;;;;;;;4978787;28;20045;-64
2023/03/17 08:04:30;;;;;;;31.02;9.43;;;;;;;;;;4962300;28;20075;-64
2023/03/17 08:07:00;;;;;;;23.13;8.35;;;;;;;;;;4978047;28;20140;-64
2023/03/17 08:09:28;;;;;;;27.83;9.75;;;;;;;;;;4975940;28;20049;-64
2023/03/17 08:11:58;;;;;;;24.38;8.80;;;;;;;;;;4975972;28;20119;-64
2023/03/17 08:14:24;;;;;;;20.67;8.77;;;;;;;;;;4976611;28;20654;-65
2023/03/17 08:16:52;;;;;;;21.08;7.78;;;;;;;;;;4968629;28;20040;-66
2023/03/17 08:19:18;;;;;;;14.93;6.88;;;;;;;;;;4977739;28;22387;-62
2023/03/17 08:21:43;;;;;;;14.55;6.70;;;;;;;;;;4974757;28;20029;-67
2023/03/17 08:24:11;;;;;;;12.18;5.88;;;;;;;;;;4958347;28;20038;-65
2023/03/17 08:26:36;;;;;;;14.75;5.88;;;;;;;;;;4978350;28;20033;-65
2023/03/17 08:29:03;;;;;;;14.20;6.28;;;;;;;;;;4991643;28;20103;-63
2023/03/17 08:31:29;;;;;;;11.55;5.70;;;;;;;;;;4976871;28;20260;-63
2023/03/17 08:33:57;;;;;;;11.70;5.70;;;;;;;;;;4953662;28;20388;-64
2023/03/17 08:36:23;;;;;;;14.30;6.00;;;;;;;;;;4975996;28;20057;-64
2023/03/17 08:38:49;;;;;;;14.43;6.72;;;;;;;;;;4977830;28;20071;-65
2023/03/17 08:41:18;;;;;;;13.85;6.55;;;;;;;;;;4958235;28;20492;-66
2023/03/17 08:43:45;;;;;;;22.98;8.27;;;;;;;;;;4960744;28;20809;-65
2023/03/17 08:46:18;;;;;;;19.52;7.60;;;;;;;;;;4970245;28;20072;-64
2023/03/17 08:48:45;;;;;;;18.77;7.18;;;;;;;;;;4974241;28;20143;-65
2023/03/17 08:51:11;;;;;;;26.88;7.80;;;;;;;;;;4957052;28;20037;-65
2023/03/17 08:53:39;;;;;;;28.90;9.75;;;;;;;;;;4976009;28;20171;-65
2023/03/17 08:56:05;;;;;;;21.63;8.13;;;;;;;;;;4973559;28;20079;-66
2023/03/17 08:58:31;;;;;;;13.32;5.68;;;;;;;;;;4973621;28;20072;-66
2023/03/17 09:01:00;;;;;;;15.13;6.50;;;;;;;;;;4973290;28;20372;-66
2023/03/17 09:03:27;;;;;;;16.63;7.35;;;;;;;;;;4971060;28;20433;-66
2023/03/17 09:05:53;;;;;;;16.48;7.18;;;;;;;;;;4969057;28;21880;-65
2023/03/17 09:08:19;;;;;;;13.73;6.15;;;;;;;;;;4987600;28;20034;-66
2023/03/17 09:10:44;;;;;;;10.65;6.03;;;;;;;;;;4957863;28;20572;-66
2023/03/17 09:13:10;;;;;;;11.40;5.50;;;;;;;;;;4974579;28;20064;-65
2023/03/17 09:15:36;;;;;;;8.10;5.28;;;;;;;;;;4956467;28;21806;-66
2023/03/17 09:18:02;;;;;;;9.27;5.40;;;;;;;;;;4974987;28;20576;-67
2023/03/17 09:20:28;;;;;;;8.18;5.57;;;;;;;;;;4942035;28;20100;-65
2023/03/17 09:22:56;;;;;;;11.27;6.00;;;;;;;;;;4976384;28;20045;-66
2023/03/17 09:25:26;;;;;;;10.73;6.03;;;;;;;;;;4974335;28;20112;-66
2023/03/17 09:27:52;;;;;;;11.90;6.85;;;;;;;;;;4976433;28;20061;-66
2023/03/17 09:30:17;;;;;;;12.48;6.15;;;;;;;;;;4949961;28;20344;-66
2023/03/17 09:32:44;;;;;;;9.88;6.15;;;;;;;;;;4941767;28;20128;-67
2023/03/17 09:35:10;;;;;;;11.75;6.43;;;;;;;;;;4970559;28;20057;-68
2023/03/17 09:37:36;;;;;;;11.60;6.75;;;;;;;;;;4972529;28;20073;-65
2023/03/17 09:40:02;;;;;;;11.75;6.60;;;;;;;;;;4974009;28;20122;-65
2023/03/17 09:42:37;;;;;;;12.68;6.60;;;;;;;;;;4972716;28;20076;-66
2023/03/17 09:45:21;;;;;;;10.40;6.45;;;;;;;;;;4973148;28;20041;-65
2023/03/17 09:47:49;;;;;;;9.50;6.00;;;;;;;;;;4972292;28;20041;-67
2023/03/17 09:50:18;;;;;;;13.68;6.72;;;;;;;;;;4974236;28;20569;-66
2023/03/17 09:52:44;;;;;;;13.05;6.60;;;;;;;;;;4975094;28;20123;-67
2023/03/17 09:55:18;;;;;;;12.43;6.95;;;;;;;;;;4956029;28;20069;-67
2023/03/17 09:57:43;;;;;;;12.93;7.22;;;;;;;;;;4973629;28;20497;-66
2023/03/17 10:00:13;;;;;;;10.52;5.80;;;;;;;;;;4950968;28;20146;-66
2023/03/17 10:02:42;;;;;;;9.80;5.45;;;;;;;;;;4974503;28;20034;-66
2023/03/17 10:05:20;;;;;;;9.43;5.75;;;;;;;;;;4987901;28;20473;-67
2023/03/17 10:07:55;;;;;;;8.65;5.07;;;;;;;;;;4974137;28;20549;-67
2023/03/17 10:10:28;;;;;;;8.50;5.28;;;;;;;;;;4988792;28;20030;-66
2023/03/17 10:13:02;;;;;;;10.73;5.82;;;;;;;;;;4956972;28;20600;-67
2023/03/17 10:15:37;;;;;;;13.20;6.10;;;;;;;;;;4974170;28;20084;-67
2023/03/17 10:18:11;;;;;;;8.48;5.47;;;;;;;;;;4975409;28;20053;-67
2023/03/17 10:20:41;;;;;;;10.80;5.63;;;;;;;;;;4974578;28;20034;-66
2023/03/17 10:23:09;;;;;;;8.38;5.45;;;;;;;;;;4972257;28;20404;-67
2023/03/17 10:25:35;;;;;;;8.40;5.30;;;;;;;;;;4958884;28;20046;-68
2023/03/17 10:28:02;;;;;;;11.23;5.78;;;;;;;;;;4972706;28;20029;-68
2023/03/17 10:30:31;;;;;;;9.70;5.78;;;;;;;;;;4973477;28;20979;-67
2023/03/17 10:32:58;;;;;;;9.82;5.50;;;;;;;;;;4941938;28;20829;-70
2023/03/17 10:35:23;;;;;;;7.68;5.07;;;;;;;;;;4975420;28;20568;-67
2023/03/17 10:37:51;;;;;;;9.48;5.95;;;;;;;;;;4975002;28;20502;-70
2023/03/17 10:40:24;;;;;;;11.25;5.95;;;;;;;;;;4973202;28;20485;-69
2023/03/17 10:43:13;;;;;;;9.38;5.53;;;;;;;;;;4971651;28;20100;-69
2023/03/17 10:45:45;;;;;;;11.75;5.60;;;;;;;;;;4957353;28;20037;-68
2023/03/17 10:48:16;;;;;;;11.93;6.05;;;;;;;;;;4975902;28;20505;-68
2023/03/17 10:50:41;;;;;;;8.88;5.68;;;;;;;;;;4952251;28;20037;-67
2023/03/17 10:53:17;;;;;;;9.73;5.97;;;;;;;;;;4972271;28;20278;-68
2023/03/17 10:55:48;;;;;;;10.38;5.75;;;;;;;;;;4972914;28;20030;-66
2023/03/17 10:58:17;;;;;;;9.27;5.97;;;;;;;;;;4948808;28;20034;-68
2023/03/17 11:00:48;;;;;;;7.82;5.70;;;;;;;;;;4972768;28;20558;-69
2023/03/17 11:03:17;;;;;;;13.15;6.07;;;;;;;;;;4972180;28;20037;-68
2023/03/17 11:05:53;;;;;;;13.05;6.28;;;;;;;;;;4974186;28;20759;-68
2023/03/17 11:08:19;;;;;;;8.38;5.88;;;;;;;;;;4961298;28;20117;-67
2023/03/17 11:10:47;;;;;;;8.75;6.03;;;;;;;;;;4989066;28;20949;-67
2023/03/17 11:13:15;;;;;;;9.00;6.05;;;;;;;;;;4989620;28;20045;-68
2023/03/17 11:15:45;;;;;;;8.30;5.78;;;;;;;;;;4969535;28;20788;-68
2023/03/17 11:18:18;;;;;;;9.95;6.25;;;;;;;;;;4974155;28;21076;-68
2023/03/17 11:20:55;;;;;;;14.05;6.55;;;;;;;;;;4975798;28;20162;-69
2023/03/17 11:23:29;;;;;;;9.45;5.78;;;;;;;;;;4972625;28;20038;-70
2023/03/17 11:26:21;;;;;;;11.45;6.72;;;;;;;;;;4976901;28;20140;-67
2023/03/17 11:28:53;;;;;;;11.15;6.72;;;;;;;;;;4976404;28;20033;-66
2023/03/17 11:31:24;;;;;;;10.23;6.53;;;;;;;;;;4974777;28;20034;-68
2023/03/17 11:33:49;;;;;;;10.80;6.33;;;;;;;;;;4956878;28;20038;-68
2023/03/17 11:36:20;;;;;;;11.40;6.45;;;;;;;;;;4952122;28;20149;-68
2023/03/17 11:38:51;;;;;;;12.10;6.00;;;;;;;;;;4971646;28;20133;-67
2023/03/17 11:41:16;;;;;;;14.75;6.35;;;;;;;;;;4974450;28;22252;-68
2023/03/17 11:43:48;;;;;;;12.65;6.85;;;;;;;;;;4952694;28;20083;-67
2023/03/17 11:46:35;;;;;;;10.85;6.60;;;;;;;;;;4974507;28;20532;-67
2023/03/17 11:49:19;;;;;;;11.18;7.13;;;;;;;;;;4941675;28;20030;-68
2023/03/17 11:51:50;;;;;;;19.35;12.82;;;;;;;;;;4977725;28;20821;-66
2023/03/17 11:54:24;;;;;;;17.50;11.32;;;;;;;;;;4963325;28;20045;-69
2023/03/17 11:56:54;;;;;;;16.55;11.15;;;;;;;;;;4969387;28;20600;-67
2023/03/17 11:59:22;;;;;;;12.70;8.43;;;;;;;;;;4952061;28;20084;-67
2023/03/17 12:02:14;;;;;;;12.93;7.72;;;;;;;;;;4971228;28;20057;-67
2023/03/17 12:04:49;;;;;;;9.75;6.47;;;;;;;;;;4952744;28;20122;-67
2023/03/17 12:07:17;;;;;;;12.07;7.18;;;;;;;;;;4975106;28;20589;-68
2023/03/17 12:09:45;;;;;;;12.73;6.85;;;;;;;;;;4956109;28;20034;-68
2023/03/17 12:12:13;;;;;;;12.98;7.13;;;;;;;;;;4974092;28;22578;-67
2023/03/17 12:14:47;;;;;;;11.55;7.07;;;;;;;;;;4973714;28;20021;-68
2023/03/17 12:17:31;;;;;;;13.88;7.20;;;;;;;;;;4991194;28;20107;-67
2023/03/17 12:20:05;;;;;;;10.80;6.57;;;;;;;;;;4958265;28;20029;-68
2023/03/17 12:22:35;;;;;;;9.50;6.80;;;;;;;;;;4975038;28;20036;-67
2023/03/17 12:25:04;;;;;;;15.32;7.70;;;;;;;;;;4946545;28;20036;-72
2023/03/17 12:27:35;;;;;;;10.68;6.63;;;;;;;;;;4969151;28;20037;-66
2023/03/17 12:30:29;;;;;;;11.03;7.03;;;;;;;;;;4974411;28;21075;-68
2023/03/17 12:33:00;;;;;;;13.13;7.05;;;;;;;;;;4944817;28;20052;-67
2023/03/17 12:35:30;;;;;;;10.67;7.37;;;;;;;;;;4978961;28;20081;-69
2023/03/17 12:38:01;;;;;;;10.15;7.28;;;;;;;;;;4947704;28;20281;-68
2023/03/17 12:40:31;;;;;;;11.85;7.65;;;;;;;;;;4943259;28;20042;-68
2023/03/17 12:43:09;;;;;;;12.27;7.50;;;;;;;;;;4955440;28;20805;-67
2023/03/17 12:45:40;;;;;;;10.20;7.30;;;;;;;;;;4953572;28;20042;-69
2023/03/17 12:48:30;;;;;;;11.30;7.32;;;;;;;;;;4950846;28;20034;-69
2023/03/17 12:51:05;;;;;;;11.15;7.43;;;;;;;;;;4942466;28;20034;-66
2023/03/17 12:53:37;;;;;;;11.73;7.68;;;;;;;;;;4946661;28;20125;-66
2023/03/17 12:56:19;;;;;;;14.60;8.10;;;;;;;;;;4950363;28;20042;-67
2023/03/17 12:58:49;;;;;;;8.90;7.28;;;;;;;;;;4943581;28;20895;-68
2023/03/17 13:01:35;;;;;;;11.68;7.57;;;;;;;;;;4952882;28;20030;-67
2023/03/17 13:04:20;;;;;;;13.70;8.05;;;;;;;;;;4953472;28;20046;-66
2023/03/17 13:07:09;;;;;;;18.58;12.40;;;;;;;;;;4951313;28;20030;-65
2023/03/17 13:09:36;;;;;;;22.63;15.95;;;;;;;;;;4927512;28;20846;-69
2023/03/17 13:12:09;;;;;;;19.92;14.55;;;;;;;;;;4943631;28;20034;-65
2023/03/17 13:14:43;;;;;;;12.98;8.73;;;;;;;;;;4952689;28;20045;-68
2023/03/17 13:17:23;;;;;;;12.30;7.30;;;;;;;;;;4953493;28;21280;-67
2023/03/17 13:19:56;;;;;;;11.68;7.88;;;;;;;;;;4952265;28;20038;-66
2023/03/17 13:22:24;;;;;;;19.70;12.88;;;;;;;;;;4953469;28;20088;-68
2023/03/17 13:24:51;;;;;;;16.75;11.95;;;;;;;;;;4944457;28;20113;-67
2023/03/17 13:27:23;;;;;;;14.23;8.18;;;;;;;;;;4952547;28;20592;-67
2023/03/17 13:29:50;;;;;;;14.95;8.18;;;;;;;;;;4954240;28;20758;-69
2023/03/17 13:32:17;;;;;;;13.40;7.93;;;;;;;;;;4967479;28;20182;-67
2023/03/17 13:34:47;;;;;;;14.80;8.52;;;;;;;;;;4952783;28;20116;-67
2023/03/17 13:37:26;;;;;;;15.23;8.40;;;;;;;;;;4955340;28;21083;-67
2023/03/17 13:40:11;;;;;;;13.77;9.48;;;;;;;;;;4977209;28;21052;-67
2023/03/17 13:42:43;;;;;;;15.35;8.30;;;;;;;;;;4962259;28;21424;-68
2023/03/17 13:45:22;;;;;;;15.27;8.05;;;;;;;;;;4959996;28;20033;-68
2023/03/17 13:47:49;;;;;;;15.68;7.82;;;;;;;;;;4961575;28;20068;-64
2023/03/17 13:50:30;;;;;;;15.63;8.20;;;;;;;;;;4970924;28;20040;-68
2023/03/17 13:53:00;;;;;;;9.57;7.70;;;;;;;;;;4971675;28;20070;-67
2023/03/17 13:55:34;;;;;;;13.77;8.63;;;;;;;;;;4948591;28;20427;-66
2023/03/17 13:58:05;;;;;;;14.05;8.00;;;;;;;;;;4957757;28;20042;-66
2023/03/17 14:00:31;;;;;;;12.73;8.32;;;;;;;;;;4964718;28;20045;-66
2023/03/17 14:03:03;;;;;;;13.52;8.35;;;;;;;;;;4974379;28;20041;-67
2023/03/17 14:05:30;;;;;;;14.75;8.80;;;;;;;;;;4973402;28;20041;-68
2023/03/17 14:07:58;;;;;;;13.00;8.27;;;;;;;;;;4971013;28;20039;-65
2023/03/17 14:10:25;;;;;;;14.05;8.30;;;;;;;;;;4966008;28;20233;-65
2023/03/17 14:12:56;;;;;;;15.10;8.30;;;;;;;;;;4972138;28;20042;-67
2023/03/17 14:15:46;;;;;;;14.07;8.50;;;;;;;;;;4949803;28;20095;-67
2023/03/17 14:18:15;;;;;;;14.07;8.50;;;;;;;;;;4969731;28;20116;-66
2023/03/17 14:20:51;;;;;;;13.60;8.40;;;;;;;;;;4972519;28;20045;-66
2023/03/17 14:23:20;;;;;;;13.73;7.95;;;;;;;;;;4972522;28;20506;-67
2023/03/17 14:25:45;;;;;;;15.48;8.13;;;;;;;;;;4955174;28;20037;-66
2023/03/17 14:28:12;;;;;;;17.98;8.85;;;;;;;;;;4970098;28;20080;-66
2023/03/17 14:30:38;;;;;;;16.58;8.73;;;;;;;;;;4971125;28;20038;-67
2023/03/17 14:33:18;;;;;;;14.23;8.77;;;;;;;;;;4973529;28;20042;-66
2023/03/17 14:35:44;;;;;;;13.57;8.98;;;;;;;;;;4972190;28;20030;-68
2023/03/17 14:38:19;;;;;;;14.85;9.07;;;;;;;;;;4963811;28;21719;-69
2023/03/17 14:40:45;;;;;;;14.05;9.05;;;;;;;;;;4947473;28;21870;-66
2023/03/17 14:43:13;;;;;;;14.75;8.93;;;;;;;;;;4950693;28;20038;-67
2023/03/17 14:45:49;;;;;;;15.88;9.38;;;;;;;;;;4958570;28;20059;-67
2023/03/17 14:48:16;;;;;;;16.38;9.35;;;;;;;;;;4975315;28;20037;-67